createdAt,value
2019-02-26T00:01:54.767Z,24.98
2019-02-26T00:04:25.470Z,24.12
2019-02-26T00:06:55.749Z,24.18
2019-02-26T00:09:27.055Z,24.50
2019-02-26T00:11:55.331Z,27.05
2019-02-26T00:14:24.892Z,25.75
2019-02-26T00:16:54.848Z,25.82
2019-02-26T00:19:23.794Z,25.32
2019-02-26T00:21:54.337Z,25.80
2019-02-26T00:24:23.433Z,24.65
2019-02-26T00:26:52.353Z,25.60
2019-02-26T00:29:23.154Z,25.02
2019-02-26T00:31:52.919Z,26.65
2019-02-26T00:34:22.444Z,24.87
2019-02-26T00:36:51.367Z,26.02
2019-02-26T00:39:21.043Z,25.27
2019-02-26T00:41:53.255Z,24.77
2019-02-26T00:44:25.074Z,22.80
2019-02-26T00:46:53.608Z,26.55
2019-02-26T00:49:23.629Z,26.25
2019-02-26T00:51:53.448Z,24.80
2019-02-26T00:54:24.509Z,24.98
2019-02-26T00:56:52.985Z,24.23
2019-02-26T00:59:21.912Z,23.83
2019-02-26T01:01:52.619Z,24.82
2019-02-26T01:04:21.673Z,21.42
2019-02-26T01:06:50.649Z,23.07
2019-02-26T01:09:19.823Z,24.30
2019-02-26T01:11:49.860Z,19.73
2019-02-26T01:14:20.345Z,21.68
2019-02-26T01:16:50.005Z,19.00
2019-02-26T01:19:19.884Z,19.30
2019-02-26T01:21:48.984Z,19.35
2019-02-26T01:24:17.970Z,18.52
2019-02-26T01:26:46.844Z,18.32
2019-02-26T01:29:18.596Z,19.55
2019-02-26T01:31:46.615Z,17.85
2019-02-26T01:34:16.331Z,17.73
2019-02-26T01:36:47.754Z,19.17
2019-02-26T01:39:19.239Z,19.70
2019-02-26T01:41:48.459Z,19.77
2019-02-26T01:44:18.410Z,20.50
2019-02-26T01:46:47.565Z,19.95
2019-02-26T01:49:17.146Z,20.45
2019-02-26T01:51:49.173Z,20.57
2019-02-26T01:54:17.705Z,20.23
2019-02-26T01:56:46.547Z,17.87
2019-02-26T01:59:18.224Z,20.55
2019-02-26T02:01:46.522Z,20.48
2019-02-26T02:04:17.226Z,20.40
2019-02-26T02:06:47.285Z,21.05
2019-02-26T02:09:18.131Z,20.60
2019-02-26T02:11:46.887Z,20.77
2019-02-26T02:14:17.059Z,20.40
2019-02-26T02:16:46.065Z,20.82
2019-02-26T02:19:17.999Z,22.25
2019-02-26T02:21:47.002Z,20.88
2019-02-26T02:24:17.484Z,20.35
2019-02-26T02:26:49.855Z,21.60
2019-02-26T02:29:19.164Z,20.45
2019-02-26T02:31:48.105Z,20.92
2019-02-26T02:34:17.053Z,21.52
2019-02-26T02:36:46.025Z,22.32
2019-02-26T02:39:17.757Z,21.02
2019-02-26T02:41:48.745Z,22.50
2019-02-26T02:44:17.892Z,22.48
2019-02-26T02:46:47.365Z,20.48
2019-02-26T02:49:17.923Z,23.10
2019-02-26T02:51:47.066Z,22.80
2019-02-26T02:54:18.113Z,23.07
2019-02-26T02:56:46.525Z,24.52
2019-02-26T02:59:16.578Z,22.52
2019-02-26T03:01:48.376Z,22.67
2019-02-26T03:04:19.536Z,21.87
2019-02-26T03:06:46.845Z,23.55
2019-02-26T03:09:17.750Z,22.65
2019-02-26T03:11:48.870Z,30.57
2019-02-26T03:14:18.676Z,31.30
2019-02-26T03:16:48.783Z,27.30
2019-02-26T03:19:18.316Z,24.02
2019-02-26T03:21:49.508Z,24.98
2019-02-26T03:24:17.884Z,26.25
2019-02-26T03:26:46.765Z,25.62
2019-02-26T03:29:15.666Z,26.93
2019-02-26T03:31:46.765Z,25.82
2019-02-26T03:34:20.306Z,25.52
2019-02-26T03:36:45.867Z,27.45
2019-02-26T03:39:14.833Z,27.02
2019-02-26T03:41:45.832Z,25.72
2019-02-26T03:44:14.405Z,27.00
2019-02-26T03:46:43.286Z,26.57
2019-02-26T03:49:12.164Z,24.98
2019-02-26T03:51:41.151Z,26.97
2019-02-26T03:54:10.066Z,24.92
2019-02-26T03:56:38.946Z,28.90
2019-02-26T03:59:11.121Z,28.20
2019-02-26T04:01:38.845Z,27.02
2019-02-26T04:04:07.819Z,27.82
2019-02-26T04:06:38.948Z,28.07
2019-02-26T04:09:08.452Z,28.00
2019-02-26T04:11:39.628Z,28.92
2019-02-26T04:14:12.176Z,28.67
2019-02-26T04:16:41.118Z,30.77
2019-02-26T04:19:10.384Z,30.85
2019-02-26T04:22:17.997Z,29.87
2019-02-26T04:24:46.126Z,29.00
2019-02-26T04:27:36.325Z,29.45
2019-02-26T04:30:11.630Z,30.55
2019-02-26T04:32:50.154Z,29.20
2019-02-26T04:35:20.945Z,30.27
2019-02-26T04:38:06.324Z,30.45
2019-02-26T04:40:47.224Z,31.00
2019-02-26T04:43:25.449Z,31.75
2019-02-26T04:46:08.516Z,33.78
2019-02-26T04:48:40.555Z,28.40
2019-02-26T04:51:09.737Z,28.02
2019-02-26T04:53:38.604Z,31.57
2019-02-26T04:56:12.111Z,30.85
2019-02-26T04:58:40.375Z,31.15
2019-02-26T05:01:10.112Z,31.40
2019-02-26T05:03:40.032Z,31.42
2019-02-26T05:06:10.863Z,33.70
2019-02-26T05:08:40.239Z,33.80
2019-02-26T05:11:14.856Z,32.60
2019-02-26T05:13:40.783Z,34.73
2019-02-26T05:16:09.687Z,32.13
2019-02-26T05:18:38.620Z,30.27
2019-02-26T05:21:10.214Z,29.82
2019-02-26T05:23:38.211Z,31.65
2019-02-26T05:26:08.370Z,26.00
2019-02-26T05:28:40.842Z,29.55
2019-02-26T05:31:09.157Z,29.50
2019-02-26T05:33:39.074Z,30.32
2019-02-26T05:36:09.473Z,29.45
2019-02-26T05:38:38.632Z,30.62
2019-02-26T05:41:07.604Z,30.35
2019-02-26T05:43:36.477Z,29.70
2019-02-26T05:46:05.459Z,31.65
2019-02-26T05:48:34.388Z,29.98
2019-02-26T05:51:05.704Z,29.25
2019-02-26T05:53:33.931Z,30.52
2019-02-26T05:56:03.124Z,31.02
2019-02-26T05:58:33.600Z,30.97
2019-02-26T06:01:02.826Z,30.50
2019-02-26T06:03:31.725Z,30.92
2019-02-26T06:06:00.753Z,31.02
2019-02-26T06:08:32.816Z,29.10
2019-02-26T06:11:00.326Z,30.52
2019-02-26T06:13:31.508Z,29.50
2019-02-26T06:16:02.207Z,32.25
2019-02-26T06:18:30.518Z,31.87
2019-02-26T06:21:01.189Z,30.52
2019-02-26T06:23:31.711Z,31.45
2019-02-26T06:26:02.311Z,32.15
2019-02-26T06:28:35.510Z,34.83
2019-02-26T06:31:01.976Z,34.00
2019-02-26T06:33:34.116Z,35.23
2019-02-26T06:36:04.121Z,35.35
2019-02-26T06:38:33.293Z,35.25
2019-02-26T06:41:02.946Z,34.55
2019-02-26T06:43:37.473Z,36.70
2019-02-26T06:46:09.157Z,35.68
2019-02-26T06:48:35.905Z,34.60
2019-02-26T06:51:07.084Z,33.55
2019-02-26T06:53:35.493Z,32.63
2019-02-26T06:56:04.429Z,31.70
2019-02-26T06:58:33.411Z,37.35
2019-02-26T07:01:02.475Z,36.13
2019-02-26T07:03:31.564Z,35.75
2019-02-26T07:06:03.191Z,33.53
2019-02-26T07:08:31.133Z,36.63
2019-02-26T07:11:00.094Z,37.20
2019-02-26T07:13:29.122Z,36.85
2019-02-26T07:15:58.064Z,35.45
2019-02-26T07:18:26.992Z,37.35
2019-02-26T07:20:57.723Z,38.13
2019-02-26T07:23:29.213Z,36.05
2019-02-26T07:25:57.186Z,37.15
2019-02-26T07:28:26.861Z,39.83
2019-02-26T07:30:55.945Z,38.28
2019-02-26T07:33:24.894Z,37.38
2019-02-26T07:35:56.408Z,38.17
2019-02-26T07:38:25.251Z,39.05
2019-02-26T07:40:56.550Z,37.78
2019-02-26T07:43:25.785Z,37.67
2019-02-26T07:45:54.646Z,36.63
2019-02-26T07:48:25.884Z,39.75
2019-02-26T07:50:55.576Z,39.80
2019-02-26T07:53:24.642Z,39.18
2019-02-26T07:55:53.574Z,40.33
2019-02-26T07:58:22.545Z,36.93
2019-02-26T08:00:52.183Z,35.92
2019-02-26T08:03:23.771Z,38.48
2019-02-26T08:05:52.009Z,36.80
2019-02-26T08:08:21.079Z,36.00
2019-02-26T08:10:50.780Z,38.33
2019-02-26T08:13:20.731Z,38.20
2019-02-26T08:15:49.764Z,39.33
2019-02-26T08:18:18.784Z,36.35
2019-02-26T08:20:47.693Z,41.80
2019-02-26T08:23:17.192Z,38.00
2019-02-26T08:25:47.413Z,39.40
2019-02-26T08:28:18.534Z,39.75
2019-02-26T08:30:47.483Z,39.95
2019-02-26T08:33:17.627Z,41.50
2019-02-26T08:35:46.493Z,43.40
2019-02-26T08:38:16.311Z,39.03
2019-02-26T08:40:45.490Z,39.85
2019-02-26T08:43:14.425Z,42.70
2019-02-26T08:45:43.413Z,40.98
2019-02-26T08:48:14.706Z,40.40
2019-02-26T08:50:44.041Z,40.40
2019-02-26T08:53:13.645Z,42.20
2019-02-26T08:55:42.604Z,42.85
2019-02-26T08:58:12.522Z,41.75
2019-02-26T09:00:41.666Z,42.03
2019-02-26T09:03:11.406Z,42.05
2019-02-26T09:05:41.305Z,42.45
2019-02-26T09:08:12.824Z,44.40
2019-02-26T09:10:41.753Z,42.88
2019-02-26T09:13:13.834Z,40.92
2019-02-26T09:15:43.167Z,43.70
2019-02-26T09:18:12.324Z,43.78
2019-02-26T09:20:41.327Z,45.92
2019-02-26T09:23:10.245Z,42.48
2019-02-26T09:25:39.369Z,44.98
2019-02-26T09:28:08.413Z,44.05
2019-02-26T09:30:38.841Z,44.05
2019-02-26T09:33:09.187Z,44.95
2019-02-26T09:35:38.706Z,43.83
2019-02-26T09:38:07.556Z,49.88
2019-02-26T09:40:36.574Z,45.98
2019-02-26T09:43:06.236Z,45.33
2019-02-26T09:45:35.245Z,47.15
2019-02-26T09:48:04.266Z,46.98
2019-02-26T09:50:33.134Z,48.42
2019-02-26T09:53:02.145Z,50.28
2019-02-26T09:55:31.073Z,47.35
2019-02-26T09:57:59.958Z,47.83
2019-02-26T10:00:29.635Z,49.83
2019-02-26T10:02:59.065Z,46.50
2019-02-26T10:05:27.925Z,49.13
2019-02-26T10:07:59.454Z,45.35
2019-02-26T10:10:30.834Z,48.20
2019-02-26T10:12:59.902Z,46.00
2019-02-26T10:15:29.083Z,47.40
2019-02-26T10:17:59.583Z,47.43
2019-02-26T10:20:31.649Z,45.78
2019-02-26T10:23:02.844Z,46.05
2019-02-26T10:25:31.971Z,44.63
2019-02-26T10:28:05.718Z,44.88
2019-02-26T10:30:33.986Z,42.75
2019-02-26T10:33:02.900Z,42.53
2019-02-26T10:35:33.584Z,41.98
2019-02-26T10:38:05.731Z,42.73
2019-02-26T10:40:35.589Z,43.10
2019-02-26T10:43:04.484Z,42.98
2019-02-26T10:45:38.619Z,37.93
2019-02-26T10:48:04.333Z,42.08
2019-02-26T10:50:33.266Z,42.30
2019-02-26T10:53:09.638Z,43.02
2019-02-26T10:55:38.329Z,37.90
2019-02-26T10:58:06.991Z,40.30
2019-02-26T11:00:37.534Z,42.05
2019-02-26T11:03:06.546Z,42.45
2019-02-26T11:05:39.183Z,42.15
2019-02-26T11:08:09.389Z,41.65
2019-02-26T11:10:41.378Z,46.37
2019-02-26T11:13:08.082Z,42.25
2019-02-26T11:15:37.004Z,44.85
2019-02-26T11:18:06.075Z,39.98
2019-02-26T11:20:35.622Z,43.38
2019-02-26T11:23:06.651Z,37.05
2019-02-26T11:25:36.946Z,43.85
2019-02-26T11:28:07.549Z,39.80
2019-02-26T11:30:36.608Z,37.53
2019-02-26T11:33:08.047Z,41.48
2019-02-26T11:35:36.304Z,39.73
2019-02-26T11:38:05.365Z,38.58
2019-02-26T11:40:34.305Z,35.88
2019-02-26T11:43:11.298Z,41.25
2019-02-26T11:45:35.147Z,39.48
2019-02-26T11:48:06.666Z,40.95
2019-02-26T11:50:35.434Z,38.25
2019-02-26T11:53:04.405Z,38.17
2019-02-26T11:55:36.874Z,35.33
2019-02-26T11:58:07.754Z,33.40
2019-02-26T12:00:42.821Z,36.75
2019-02-26T12:03:13.154Z,35.08
2019-02-26T12:05:42.023Z,31.55
2019-02-26T12:08:11.569Z,34.50
2019-02-26T12:10:41.568Z,35.80
2019-02-26T12:13:10.607Z,34.13
2019-02-26T12:15:42.630Z,36.65
2019-02-26T12:18:12.652Z,30.17
2019-02-26T12:20:42.990Z,38.28
2019-02-26T12:23:14.300Z,35.28
2019-02-26T12:25:42.436Z,36.13
2019-02-26T12:28:13.615Z,33.67
2019-02-26T12:30:44.738Z,34.95
2019-02-26T12:33:14.686Z,33.40
2019-02-26T12:35:43.787Z,35.30
2019-02-26T12:38:20.673Z,33.10
2019-02-26T12:40:46.387Z,35.40
2019-02-26T12:43:16.355Z,35.25
2019-02-26T12:45:44.666Z,36.17
2019-02-26T12:48:16.317Z,35.98
2019-02-26T12:50:44.217Z,34.92
2019-02-26T12:53:17.192Z,35.30
2019-02-26T12:55:43.745Z,38.38
2019-02-26T12:58:15.246Z,36.42
2019-02-26T13:00:43.382Z,36.42
2019-02-26T13:03:15.780Z,38.78
2019-02-26T13:05:45.592Z,35.58
2019-02-26T13:08:19.015Z,37.03
2019-02-26T13:10:49.653Z,38.73
2019-02-26T13:13:15.533Z,39.38
2019-02-26T13:15:44.444Z,38.73
2019-02-26T13:18:13.328Z,39.38
2019-02-26T13:20:42.264Z,35.13
2019-02-26T13:23:20.809Z,36.53
2019-02-26T13:25:41.845Z,35.33
2019-02-26T13:28:10.785Z,34.25
2019-02-26T13:30:39.756Z,34.70
2019-02-26T13:33:10.854Z,34.20
2019-02-26T13:35:42.042Z,34.78
2019-02-26T13:38:10.004Z,38.08
2019-02-26T13:40:38.907Z,35.30
2019-02-26T13:43:08.748Z,34.03
2019-02-26T13:45:37.767Z,34.10
2019-02-26T13:48:06.766Z,33.55
2019-02-26T13:50:38.976Z,32.67
2019-02-26T13:53:07.086Z,31.70
2019-02-26T13:55:36.487Z,30.70
2019-02-26T13:58:11.690Z,31.48
2019-02-26T14:00:36.425Z,32.35
2019-02-26T14:03:05.830Z,32.40
2019-02-26T14:05:38.076Z,30.62
2019-02-26T14:08:05.606Z,34.65
2019-02-26T14:10:34.485Z,34.92
2019-02-26T14:13:03.908Z,34.50
2019-02-26T14:15:33.185Z,33.85
2019-02-26T14:18:02.147Z,34.55
2019-02-26T14:20:31.205Z,33.78
2019-02-26T14:23:00.255Z,33.73
2019-02-26T14:25:29.365Z,33.88
2019-02-26T14:27:58.624Z,34.80
2019-02-26T14:30:27.647Z,34.35
2019-02-26T14:32:56.725Z,34.60
2019-02-26T14:35:25.612Z,32.98
2019-02-26T14:37:54.584Z,34.50
2019-02-26T14:40:23.664Z,33.70
2019-02-26T14:42:52.565Z,31.85
2019-02-26T14:45:25.673Z,34.00
2019-02-26T14:47:55.125Z,37.10
2019-02-26T14:50:26.391Z,33.00
2019-02-26T14:52:55.592Z,33.33
2019-02-26T14:55:24.635Z,34.25
2019-02-26T14:57:53.624Z,33.70
2019-02-26T15:00:33.005Z,34.98
2019-02-26T15:03:01.966Z,35.13
2019-02-26T15:05:30.932Z,31.68
2019-02-26T15:08:00.005Z,33.08
2019-02-26T15:10:28.965Z,31.62
2019-02-26T15:12:58.005Z,34.80
2019-02-26T15:15:27.057Z,35.05
2019-02-26T15:17:56.005Z,32.25
2019-02-26T15:20:25.696Z,32.85
2019-02-26T15:22:54.907Z,33.15
2019-02-26T15:25:25.925Z,33.45
2019-02-26T15:28:04.250Z,36.45
2019-02-26T15:30:25.782Z,33.02
2019-02-26T15:32:54.748Z,32.38
2019-02-26T15:35:24.105Z,32.33
2019-02-26T15:38:00.242Z,33.58
2019-02-26T15:40:29.405Z,34.25
2019-02-26T15:42:58.267Z,33.95
2019-02-26T15:45:32.186Z,34.18
2019-02-26T15:50:30.784Z,34.70
2019-02-26T15:52:59.776Z,36.55
2019-02-26T15:55:30.464Z,37.50
2019-02-26T15:58:03.021Z,38.13
2019-02-26T16:00:30.347Z,38.15
2019-02-26T16:03:00.019Z,39.10
2019-02-26T16:05:37.449Z,41.00
2019-02-26T16:08:06.708Z,38.28
2019-02-26T16:10:35.546Z,36.00
2019-02-26T16:13:04.765Z,38.02
2019-02-26T16:15:35.686Z,38.33
2019-02-26T16:18:04.758Z,38.85
2019-02-26T16:20:33.762Z,37.60
2019-02-26T16:23:02.824Z,39.10
2019-02-26T16:25:31.808Z,42.38
2019-02-26T16:28:01.718Z,41.63
2019-02-26T16:30:31.104Z,40.67
2019-02-26T16:33:00.081Z,41.18
2019-02-26T16:35:29.275Z,41.60
2019-02-26T16:37:58.245Z,47.03
2019-02-26T16:40:31.354Z,48.42
2019-02-26T16:42:58.054Z,45.35
2019-02-26T16:45:28.070Z,44.83
2019-02-26T16:47:57.527Z,41.25
2019-02-26T16:50:28.616Z,38.40
2019-02-26T16:53:00.052Z,38.53
2019-02-26T16:55:28.664Z,37.53
2019-02-26T16:58:02.352Z,36.85
2019-02-26T17:00:29.945Z,38.08
2019-02-26T17:03:00.949Z,44.55
2019-02-26T17:05:30.072Z,38.58
2019-02-26T17:07:59.423Z,42.30
2019-02-26T17:10:30.473Z,51.37
2019-02-26T17:13:02.334Z,70.10
2019-02-26T17:15:38.205Z,50.05
2019-02-26T17:18:09.810Z,46.53
2019-02-26T17:20:38.584Z,43.42
2019-02-26T17:23:07.749Z,45.15
2019-02-26T17:25:37.046Z,42.62
2019-02-26T17:28:06.304Z,68.07
2019-02-26T17:30:35.765Z,60.95
2019-02-26T17:33:05.071Z,55.73
2019-02-26T17:35:34.293Z,52.50
2019-02-26T17:38:03.546Z,59.03
2019-02-26T17:40:33.894Z,57.03
2019-02-26T17:43:03.669Z,54.58
2019-02-26T17:45:37.313Z,56.90
2019-02-26T17:48:07.186Z,51.63
2019-02-26T17:50:38.102Z,54.45
2019-02-26T17:53:08.125Z,53.63
2019-02-26T17:55:37.386Z,52.00
2019-02-26T17:58:09.730Z,57.83
2019-02-26T18:00:39.085Z,52.98
2019-02-26T18:03:08.168Z,57.17
2019-02-26T18:05:43.428Z,60.20
2019-02-26T18:08:08.192Z,59.00
2019-02-26T18:10:37.366Z,57.88
2019-02-26T18:13:06.546Z,57.90
2019-02-26T18:15:35.786Z,69.03
2019-02-26T18:18:04.985Z,49.42
2019-02-26T18:20:34.185Z,50.52
2019-02-26T18:23:03.467Z,51.33
2019-02-26T18:25:32.704Z,49.20
2019-02-26T18:28:01.904Z,48.20
2019-02-26T18:30:31.555Z,49.70
2019-02-26T18:33:00.846Z,48.70
2019-02-26T18:35:30.044Z,49.10
2019-02-26T18:37:59.805Z,51.65
2019-02-26T18:40:29.092Z,54.80
2019-02-26T18:42:58.332Z,59.25
2019-02-26T18:45:28.994Z,50.17
2019-02-26T18:47:58.432Z,53.23
2019-02-26T18:50:29.529Z,52.62
2019-02-26T18:52:59.026Z,51.65
2019-02-26T18:55:32.281Z,47.85
2019-02-26T18:58:00.143Z,48.13
2019-02-26T19:00:34.233Z,48.08
2019-02-26T19:03:03.638Z,47.73
2019-02-26T19:05:32.945Z,49.85
2019-02-26T19:08:05.581Z,49.58
2019-02-26T19:10:33.287Z,51.85
2019-02-26T19:13:03.239Z,52.00
2019-02-26T19:15:34.285Z,52.53
2019-02-26T19:18:03.549Z,48.17
2019-02-26T19:20:35.567Z,50.52
2019-02-26T19:23:04.931Z,50.12
2019-02-26T19:25:34.183Z,51.80
2019-02-26T19:28:03.532Z,47.53
2019-02-26T19:30:36.771Z,51.23
2019-02-26T19:33:03.806Z,53.25
2019-02-26T19:35:38.119Z,50.67
2019-02-26T19:38:05.390Z,51.28
2019-02-26T19:40:52.633Z,53.10
2019-02-26T19:43:23.772Z,53.10
2019-02-26T19:45:52.956Z,51.63
2019-02-26T19:48:22.288Z,52.78
2019-02-26T19:50:51.711Z,53.60
2019-02-26T19:53:21.036Z,55.83
2019-02-26T19:55:50.759Z,55.75
2019-02-26T19:58:20.146Z,55.75
2019-02-26T20:00:52.717Z,54.83
2019-02-26T20:03:20.456Z,56.37
2019-02-26T20:05:49.807Z,54.05
2019-02-26T20:08:19.866Z,54.70
2019-02-26T20:10:53.384Z,53.13
2019-02-26T20:13:20.186Z,56.02
2019-02-26T20:15:49.546Z,56.15
2019-02-26T20:18:20.945Z,56.48
2019-02-26T20:20:49.949Z,55.67
2019-02-26T20:23:19.273Z,54.67
2019-02-26T20:25:48.590Z,56.02
2019-02-26T20:28:19.413Z,58.17
2019-02-26T20:30:48.746Z,58.60
2019-02-26T20:33:18.008Z,57.38
2019-02-26T20:35:47.369Z,55.95
2019-02-26T20:38:16.690Z,56.35
2019-02-26T20:40:48.678Z,57.17
2019-02-26T20:43:17.009Z,57.25
2019-02-26T20:45:48.689Z,59.33
2019-02-26T20:48:17.288Z,56.48
2019-02-26T20:50:46.666Z,59.73
2019-02-26T20:53:17.207Z,60.12
2019-02-26T20:55:52.401Z,59.15
2019-02-26T20:58:18.148Z,60.10
2019-02-26T21:00:48.290Z,61.70
2019-02-26T21:03:17.647Z,61.83
2019-02-26T21:05:46.966Z,59.40
2019-02-26T21:08:16.237Z,59.53
2019-02-26T21:10:47.666Z,61.98
2019-02-26T21:13:16.466Z,62.03
2019-02-26T21:15:47.311Z,64.25
2019-02-26T21:18:16.582Z,62.48
2019-02-26T21:20:46.008Z,70.90
2019-02-26T21:23:15.207Z,62.65
2019-02-26T21:25:47.403Z,67.78
2019-02-26T21:28:15.336Z,70.55
2019-02-26T21:30:45.804Z,69.60
2019-02-26T21:33:15.448Z,70.35
2019-02-26T21:35:44.628Z,66.70
2019-02-26T21:38:13.710Z,62.78
2019-02-26T21:40:42.886Z,64.07
2019-02-26T21:43:11.956Z,67.60
2019-02-26T21:45:41.106Z,66.57
2019-02-26T21:48:10.110Z,64.03
2019-02-26T21:50:39.156Z,69.37
2019-02-26T21:53:08.221Z,63.68
2019-02-26T21:55:44.460Z,64.12
2019-02-26T21:58:07.900Z,63.52
2019-02-26T22:00:39.144Z,79.27
2019-02-26T22:03:07.467Z,77.30
2019-02-26T22:05:37.908Z,75.22
2019-02-26T22:08:07.463Z,70.85
2019-02-26T22:10:36.409Z,74.37
2019-02-26T22:13:05.469Z,70.03
2019-02-26T22:15:35.690Z,78.67
2019-02-26T22:18:05.109Z,80.10
2019-02-26T22:20:36.454Z,77.20
2019-02-26T22:23:04.675Z,70.97
2019-02-26T22:25:33.576Z,84.25
2019-02-26T22:28:02.577Z,70.12
2019-02-26T22:30:31.548Z,72.60
2019-02-26T22:33:00.447Z,74.70
2019-02-26T22:35:29.375Z,87.15
2019-02-26T22:37:58.369Z,79.17
2019-02-26T22:40:29.221Z,77.08
2019-02-26T22:42:58.008Z,76.28
2019-02-26T22:45:27.964Z,75.60
2019-02-26T22:47:57.552Z,73.87
2019-02-26T22:50:27.279Z,76.22
2019-02-26T22:52:56.788Z,75.75
2019-02-26T22:55:25.769Z,76.28
2019-02-26T22:57:54.707Z,78.47
2019-02-26T23:00:55.488Z,80.38
2019-02-26T23:03:24.629Z,78.05
2019-02-26T23:05:53.714Z,81.70
2019-02-26T23:08:22.989Z,81.10
2019-02-26T23:10:52.132Z,78.72
2019-02-26T23:13:21.268Z,76.35
2019-02-26T23:15:50.770Z,90.00
2019-02-26T23:18:20.868Z,84.65
2019-02-26T23:20:49.927Z,79.03
2019-02-26T23:23:21.726Z,82.02
2019-02-26T23:25:49.567Z,80.80
2019-02-26T23:28:21.694Z,78.72
2019-02-26T23:30:49.607Z,77.08
2019-02-26T23:33:18.768Z,80.50
2019-02-26T23:35:47.947Z,77.85
2019-02-26T23:38:16.968Z,75.42
2019-02-26T23:40:46.039Z,77.55
2019-02-26T23:43:15.128Z,78.62
2019-02-26T23:45:44.138Z,77.70
2019-02-26T23:48:13.250Z,75.17
2019-02-26T23:50:42.228Z,76.75
2019-02-26T23:53:11.228Z,76.33
2019-02-26T23:55:40.268Z,79.72
2019-02-26T23:58:09.307Z,77.62
